createdAt,value
2019-03-13T00:01:45.330Z,135.80
2019-03-13T00:04:16.201Z,116.12
2019-03-13T00:06:47.604Z,117.80
2019-03-13T00:09:16.575Z,113.03
2019-03-13T00:11:45.465Z,128.12
2019-03-13T00:14:15.487Z,146.30
2019-03-13T00:16:44.400Z,135.75
2019-03-13T00:19:15.499Z,159.03
2019-03-13T00:21:44.507Z,189.30
2019-03-13T00:24:13.502Z,181.75
2019-03-13T00:26:43.521Z,201.67
2019-03-13T00:29:12.510Z,212.42
2019-03-13T00:31:42.608Z,214.72
2019-03-13T00:34:11.623Z,227.35
2019-03-13T00:36:40.612Z,213.52
2019-03-13T00:39:13.086Z,214.55
2019-03-13T00:41:42.079Z,184.45
2019-03-13T00:44:11.074Z,165.40
2019-03-13T00:46:40.170Z,172.57
2019-03-13T00:49:09.157Z,161.52
2019-03-13T00:51:38.150Z,159.37
2019-03-13T00:54:08.686Z,133.90
2019-03-13T00:56:37.676Z,135.93
2019-03-13T00:59:06.692Z,134.93
2019-03-13T01:01:52.554Z,131.60
2019-03-13T01:04:24.107Z,137.10
2019-03-13T01:06:55.559Z,139.82
2019-03-13T01:09:27.107Z,135.52
2019-03-13T01:11:56.102Z,132.07
2019-03-13T01:14:26.117Z,129.95
2019-03-13T01:16:57.541Z,122.82
2019-03-13T01:19:25.738Z,112.55
2019-03-13T01:21:55.742Z,106.80
2019-03-13T01:24:27.203Z,115.50
2019-03-13T01:26:56.195Z,135.52
2019-03-13T01:29:25.191Z,137.57
2019-03-13T01:32:12.322Z,126.33
2019-03-13T01:34:45.214Z,167.28
2019-03-13T01:37:14.283Z,178.62
2019-03-13T01:39:43.298Z,193.20
2019-03-13T01:42:14.218Z,181.22
2019-03-13T01:44:44.131Z,154.25
2019-03-13T01:47:13.123Z,130.60
2019-03-13T01:49:42.116Z,113.25
2019-03-13T01:52:13.586Z,102.27
2019-03-13T01:54:44.925Z,85.03
2019-03-13T01:57:16.361Z,79.70
2019-03-13T01:59:45.255Z,76.65
2019-03-13T02:02:14.247Z,74.95
2019-03-13T02:04:43.345Z,64.70
2019-03-13T02:07:13.258Z,65.37
2019-03-13T02:09:42.274Z,56.53
2019-03-13T02:12:11.238Z,49.33
2019-03-13T02:14:40.127Z,50.73
2019-03-13T02:17:09.119Z,37.60
2019-03-13T02:19:38.111Z,49.70
2019-03-13T02:22:07.105Z,48.83
2019-03-13T02:24:38.780Z,48.95
2019-03-13T02:27:10.222Z,45.08
2019-03-13T02:29:39.200Z,35.25
2019-03-13T02:32:08.223Z,42.45
2019-03-13T02:34:37.188Z,40.15
2019-03-13T02:37:06.179Z,39.20
2019-03-13T02:39:36.201Z,40.63
2019-03-13T02:42:05.190Z,43.42
2019-03-13T02:44:34.180Z,41.92
2019-03-13T02:47:05.662Z,40.50
2019-03-13T02:49:34.622Z,43.78
2019-03-13T02:52:06.027Z,50.33
2019-03-13T02:54:39.083Z,41.60
2019-03-13T02:57:08.051Z,37.20
2019-03-13T02:59:38.068Z,40.67
2019-03-13T03:02:12.394Z,36.55
2019-03-13T03:04:41.479Z,33.33
2019-03-13T03:07:12.808Z,37.05
2019-03-13T03:09:45.710Z,36.25
2019-03-13T03:12:14.706Z,33.42
2019-03-13T03:15:01.815Z,42.33
2019-03-13T03:17:30.812Z,52.73
2019-03-13T03:20:00.693Z,41.65
2019-03-13T03:22:29.719Z,37.60
2019-03-13T03:24:58.713Z,42.25
2019-03-13T03:27:27.600Z,40.17
2019-03-13T03:29:56.384Z,26.70
2019-03-13T03:32:25.273Z,33.90
2019-03-13T03:34:56.352Z,29.72
2019-03-13T03:37:25.433Z,33.78
2019-03-13T03:39:54.403Z,26.85
2019-03-13T03:42:23.390Z,24.98
2019-03-13T03:44:54.961Z,25.70
2019-03-13T03:47:29.363Z,30.25
2019-03-13T03:50:12.098Z,27.25
2019-03-13T03:52:41.084Z,25.57
2019-03-13T03:55:12.023Z,27.00
2019-03-13T03:57:47.021Z,21.42
2019-03-13T04:00:20.825Z,28.25
2019-03-13T04:02:49.946Z,24.90
2019-03-13T04:05:18.869Z,27.62
2019-03-13T04:07:47.824Z,24.87
2019-03-13T04:10:22.980Z,28.55
2019-03-13T04:12:55.334Z,25.97
2019-03-13T04:15:24.328Z,33.38
2019-03-13T04:17:53.225Z,33.73
2019-03-13T04:20:24.368Z,27.55
2019-03-13T04:22:53.364Z,24.65
2019-03-13T04:25:29.008Z,33.15
2019-03-13T04:27:58.882Z,27.25
2019-03-13T04:30:27.802Z,25.43
2019-03-13T04:32:56.798Z,20.55
2019-03-13T04:35:26.809Z,29.75
2019-03-13T04:37:55.803Z,29.57
2019-03-13T04:40:28.256Z,26.65
2019-03-13T04:42:57.370Z,29.25
2019-03-13T04:45:26.262Z,26.90
2019-03-13T04:47:55.256Z,22.75
2019-03-13T04:50:28.145Z,23.70
2019-03-13T04:53:01.031Z,25.88
2019-03-13T04:55:32.575Z,26.57
2019-03-13T04:58:00.440Z,29.30
2019-03-13T05:00:35.688Z,29.20
2019-03-13T05:03:07.228Z,26.82
2019-03-13T05:05:45.427Z,26.48
2019-03-13T05:08:29.383Z,25.65
2019-03-13T05:10:58.479Z,25.45
2019-03-13T05:13:27.571Z,29.67
2019-03-13T05:15:56.461Z,35.08
2019-03-13T05:18:25.452Z,29.77
2019-03-13T05:20:54.345Z,30.62
2019-03-13T05:23:29.019Z,32.90
2019-03-13T05:25:58.945Z,25.55
2019-03-13T05:28:27.871Z,27.25
2019-03-13T05:30:56.866Z,25.80
2019-03-13T05:33:26.685Z,23.92
2019-03-13T05:35:58.994Z,32.80
2019-03-13T05:38:27.968Z,31.57
2019-03-13T05:40:59.397Z,26.68
2019-03-13T05:43:32.796Z,23.50
2019-03-13T05:46:07.985Z,17.77
2019-03-13T05:48:32.118Z,19.15
2019-03-13T05:51:00.991Z,22.93
2019-03-13T05:53:30.905Z,26.07
2019-03-13T05:56:02.324Z,23.73
2019-03-13T05:58:31.245Z,31.50
2019-03-13T06:01:00.131Z,25.45
2019-03-13T06:03:29.026Z,37.45
2019-03-13T06:05:58.935Z,29.92
2019-03-13T06:08:31.274Z,29.52
2019-03-13T06:11:00.322Z,25.63
2019-03-13T06:13:34.004Z,28.00
2019-03-13T06:16:05.547Z,22.37
2019-03-13T06:18:34.451Z,19.05
2019-03-13T06:21:06.009Z,27.10
2019-03-13T06:23:38.577Z,22.00
2019-03-13T06:26:07.670Z,19.80
2019-03-13T06:28:39.225Z,22.87
2019-03-13T06:31:12.312Z,26.25
2019-03-13T06:33:42.693Z,18.55
2019-03-13T06:36:17.993Z,22.22
2019-03-13T06:38:47.990Z,23.60
2019-03-13T06:41:16.886Z,26.73
2019-03-13T06:43:45.785Z,18.17
2019-03-13T06:46:14.764Z,19.80
2019-03-13T06:48:44.675Z,18.80
2019-03-13T06:51:13.668Z,18.92
2019-03-13T06:53:42.561Z,19.50
2019-03-13T06:56:15.748Z,20.10
2019-03-13T06:58:46.188Z,20.45
2019-03-13T07:01:16.617Z,20.97
2019-03-13T07:03:53.996Z,17.70
2019-03-13T07:06:26.283Z,15.72
2019-03-13T07:08:59.861Z,17.87
2019-03-13T07:11:37.252Z,16.17
2019-03-13T07:14:27.131Z,18.32
2019-03-13T07:17:11.994Z,18.80
2019-03-13T07:19:45.290Z,18.70
2019-03-13T07:22:27.802Z,13.35
2019-03-13T07:24:58.258Z,17.48
2019-03-13T07:27:44.062Z,18.52
2019-03-13T07:30:14.650Z,16.35
2019-03-13T07:33:01.252Z,17.07
2019-03-13T07:35:50.547Z,20.12
2019-03-13T07:38:36.386Z,24.52
2019-03-13T07:41:07.879Z,18.57
2019-03-13T07:43:41.939Z,17.07
2019-03-13T07:46:17.854Z,70.95
2019-03-13T07:48:48.347Z,36.70
2019-03-13T07:51:24.918Z,19.07
2019-03-13T07:53:55.461Z,35.17
2019-03-13T07:56:45.481Z,36.42
2019-03-13T07:59:34.214Z,20.02
2019-03-13T08:02:04.680Z,20.48
2019-03-13T08:04:35.270Z,28.27
2019-03-13T08:07:11.795Z,23.42
2019-03-13T08:09:51.253Z,18.05
2019-03-13T08:12:39.496Z,31.12
2019-03-13T08:15:31.233Z,19.23
2019-03-13T08:18:17.824Z,29.30
2019-03-13T08:21:08.843Z,21.87
2019-03-13T08:23:55.255Z,24.92
2019-03-13T08:26:30.776Z,29.55
2019-03-13T08:29:05.522Z,21.48
2019-03-13T08:31:38.807Z,27.00
2019-03-13T08:34:25.355Z,25.88
2019-03-13T08:36:58.592Z,23.10
2019-03-13T08:39:29.123Z,28.05
2019-03-13T08:42:15.932Z,26.50
2019-03-13T08:44:47.483Z,36.93
2019-03-13T08:47:35.626Z,25.45
2019-03-13T08:50:28.101Z,21.10
2019-03-13T08:53:07.606Z,20.23
2019-03-13T08:55:38.135Z,31.40
2019-03-13T08:58:11.641Z,26.70
2019-03-13T09:00:59.790Z,25.00
2019-03-13T09:03:38.092Z,21.27
2019-03-13T09:06:11.279Z,18.30
2019-03-13T09:08:47.543Z,18.60
2019-03-13T09:11:24.702Z,23.80
2019-03-13T09:14:11.533Z,19.75
2019-03-13T09:16:53.733Z,20.80
2019-03-13T09:19:41.056Z,23.75
2019-03-13T09:22:17.318Z,24.60
2019-03-13T09:25:11.327Z,17.42
2019-03-13T09:30:12.660Z,20.70
2019-03-13T09:32:45.953Z,23.18
2019-03-13T09:35:24.269Z,24.35
2019-03-13T09:37:56.227Z,22.75
2019-03-13T09:40:44.779Z,21.87
2019-03-13T09:43:23.321Z,21.57
2019-03-13T09:45:58.480Z,22.98
2019-03-13T09:48:28.958Z,20.35
2019-03-13T09:51:04.870Z,23.07
2019-03-13T09:53:44.659Z,26.15
2019-03-13T09:56:23.183Z,24.32
2019-03-13T09:58:56.218Z,22.02
2019-03-13T10:01:29.357Z,23.95
2019-03-13T10:04:05.779Z,21.10
2019-03-13T10:06:41.742Z,24.32
2019-03-13T10:09:29.402Z,26.62
2019-03-13T10:11:59.930Z,23.18
2019-03-13T10:14:46.947Z,29.85
2019-03-13T10:17:24.131Z,23.70
2019-03-13T10:19:54.659Z,22.87
2019-03-13T10:22:42.670Z,26.73
2019-03-13T10:25:13.227Z,27.32
2019-03-13T10:27:46.464Z,28.10
2019-03-13T10:30:33.433Z,28.85
2019-03-13T10:33:03.960Z,24.35
2019-03-13T10:35:34.489Z,34.65
2019-03-13T10:38:15.003Z,26.35
2019-03-13T10:40:59.407Z,30.65
2019-03-13T10:43:48.070Z,25.35
2019-03-13T10:46:27.396Z,26.15
2019-03-13T10:49:15.976Z,28.65
2019-03-13T10:51:49.034Z,27.65
2019-03-13T10:54:21.615Z,27.60
2019-03-13T10:57:01.150Z,24.47
2019-03-13T10:59:49.299Z,22.77
2019-03-13T11:02:36.203Z,27.65
2019-03-13T11:05:14.925Z,33.25
2019-03-13T11:07:51.191Z,24.87
2019-03-13T11:10:37.895Z,28.95
2019-03-13T11:13:14.465Z,29.32
2019-03-13T11:15:53.797Z,24.90
2019-03-13T11:18:30.064Z,24.12
2019-03-13T11:21:19.921Z,27.48
2019-03-13T11:24:03.694Z,30.12
2019-03-13T11:26:49.368Z,26.95
2019-03-13T11:29:20.842Z,28.77
2019-03-13T11:31:57.289Z,23.62
2019-03-13T11:34:30.578Z,23.30
2019-03-13T11:37:17.184Z,21.00
2019-03-13T11:39:50.685Z,24.43
2019-03-13T11:42:30.628Z,23.60
2019-03-13T11:45:20.516Z,20.97
2019-03-13T11:47:51.041Z,22.00
2019-03-13T11:50:32.447Z,19.23
2019-03-13T11:53:19.953Z,27.48
2019-03-13T11:56:00.825Z,27.07
2019-03-13T11:58:31.252Z,42.50
2019-03-13T12:01:20.225Z,32.30
2019-03-13T12:03:56.980Z,21.80
2019-03-13T12:06:31.475Z,28.85
2019-03-13T12:09:14.014Z,21.27
2019-03-13T12:11:53.352Z,22.35
2019-03-13T12:14:32.989Z,26.75
2019-03-13T12:17:07.421Z,25.90
2019-03-13T12:19:39.065Z,34.05
2019-03-13T12:22:24.648Z,27.80
2019-03-13T12:25:11.254Z,30.70
2019-03-13T12:27:49.284Z,38.15
2019-03-13T12:30:25.824Z,28.02
2019-03-13T12:33:00.191Z,25.43
2019-03-13T12:35:48.588Z,30.17
2019-03-13T12:38:35.913Z,25.15
2019-03-13T12:41:13.915Z,23.55
2019-03-13T12:43:51.421Z,35.43
2019-03-13T12:46:40.471Z,36.60
2019-03-13T12:49:10.998Z,48.85
2019-03-13T12:51:57.707Z,27.22
2019-03-13T12:54:28.234Z,36.10
2019-03-13T12:57:01.936Z,24.32
2019-03-13T13:02:38.849Z,30.00
2019-03-13T13:05:14.445Z,23.22
2019-03-13T13:07:47.467Z,30.27
2019-03-13T13:10:34.074Z,26.37
2019-03-13T13:13:19.759Z,21.60
2019-03-13T13:16:02.984Z,19.20
2019-03-13T13:18:39.348Z,15.30
2019-03-13T13:21:08.240Z,19.73
2019-03-13T13:23:37.230Z,25.82
2019-03-13T13:26:07.145Z,25.82
2019-03-13T13:28:35.970Z,21.97
2019-03-13T13:31:04.924Z,24.98
2019-03-13T13:33:33.950Z,20.15
2019-03-13T13:36:02.861Z,21.97
2019-03-13T13:38:31.800Z,22.52
2019-03-13T13:41:00.790Z,37.28
2019-03-13T13:43:29.792Z,23.42
2019-03-13T13:46:10.247Z,32.95
2019-03-13T13:48:39.138Z,31.05
2019-03-13T13:51:08.127Z,24.70
2019-03-13T13:53:37.122Z,22.65
2019-03-13T13:56:06.010Z,22.42
2019-03-13T13:58:35.001Z,25.00
2019-03-13T14:01:04.000Z,20.30
2019-03-13T14:03:35.464Z,21.97
2019-03-13T14:06:07.770Z,19.40
2019-03-13T14:08:36.299Z,23.65
2019-03-13T14:11:05.188Z,22.05
2019-03-13T14:13:35.103Z,17.75
2019-03-13T14:16:04.094Z,19.50
2019-03-13T14:18:32.987Z,22.13
2019-03-13T14:21:03.127Z,18.15
2019-03-13T14:23:32.103Z,17.85
2019-03-13T14:26:00.986Z,22.70
2019-03-13T14:28:29.898Z,18.90
2019-03-13T14:30:59.996Z,17.70
2019-03-13T14:33:29.907Z,19.65
2019-03-13T14:36:02.391Z,18.02
2019-03-13T14:38:31.379Z,20.43
2019-03-13T14:41:00.200Z,20.52
2019-03-13T14:43:29.056Z,16.23
2019-03-13T14:45:58.049Z,19.15
2019-03-13T14:48:29.346Z,16.57
2019-03-13T14:51:01.828Z,22.80
2019-03-13T14:53:31.595Z,23.15
2019-03-13T14:56:01.491Z,26.15
2019-03-13T14:58:32.939Z,22.00
2019-03-13T15:01:01.831Z,22.27
2019-03-13T15:03:30.623Z,22.37
2019-03-13T15:06:01.378Z,24.98
2019-03-13T15:08:30.153Z,21.17
2019-03-13T15:11:00.054Z,26.37
2019-03-13T15:13:32.980Z,32.58
2019-03-13T15:16:01.739Z,32.10
2019-03-13T15:18:33.819Z,29.95
2019-03-13T15:21:02.782Z,23.55
2019-03-13T15:23:31.526Z,24.63
2019-03-13T15:26:00.462Z,27.42
2019-03-13T15:28:29.347Z,30.82
2019-03-13T15:30:58.345Z,31.85
2019-03-13T15:33:32.457Z,36.73
2019-03-13T15:36:03.108Z,34.15
2019-03-13T15:38:31.973Z,30.02
2019-03-13T15:41:00.967Z,33.08
2019-03-13T15:43:29.861Z,29.07
2019-03-13T15:45:58.653Z,32.60
2019-03-13T15:48:27.634Z,34.23
2019-03-13T15:50:56.529Z,27.65
2019-03-13T15:53:25.415Z,28.45
2019-03-13T15:55:56.966Z,31.93
2019-03-13T15:58:29.953Z,27.52
2019-03-13T16:00:58.848Z,27.52
2019-03-13T16:03:27.734Z,34.53
2019-03-13T16:05:56.730Z,36.93
2019-03-13T16:08:25.615Z,38.70
2019-03-13T16:10:54.607Z,35.23
2019-03-13T16:13:23.520Z,47.33
2019-03-13T16:15:52.387Z,44.58
2019-03-13T16:18:23.892Z,37.60
2019-03-13T16:20:55.400Z,41.20
2019-03-13T16:23:24.282Z,38.17
2019-03-13T16:25:53.174Z,43.00
2019-03-13T16:28:22.164Z,38.10
2019-03-13T16:30:53.514Z,34.53
2019-03-13T16:33:25.872Z,35.80
2019-03-13T16:35:58.101Z,41.45
2019-03-13T16:38:28.213Z,35.70
2019-03-13T16:40:57.161Z,37.10
2019-03-13T16:43:26.048Z,34.63
2019-03-13T16:45:58.427Z,34.78
2019-03-13T16:48:27.414Z,39.03
2019-03-13T16:50:59.991Z,48.20
2019-03-13T16:53:32.418Z,43.17
2019-03-13T16:56:01.358Z,41.50
2019-03-13T16:58:30.248Z,43.17
2019-03-13T17:00:59.137Z,48.92
2019-03-13T17:03:29.052Z,47.33
2019-03-13T17:05:58.041Z,51.25
2019-03-13T17:08:26.932Z,54.58
2019-03-13T17:10:55.824Z,43.10
2019-03-13T17:13:26.726Z,65.62
2019-03-13T17:15:59.161Z,59.98
2019-03-13T17:18:31.579Z,88.00
2019-03-13T17:21:04.611Z,55.40
2019-03-13T17:23:33.483Z,68.40
2019-03-13T17:26:03.496Z,67.90
2019-03-13T17:28:35.150Z,50.00
2019-03-13T17:31:04.043Z,65.20
2019-03-13T17:33:33.036Z,52.95
2019-03-13T17:36:04.586Z,58.52
2019-03-13T17:38:36.260Z,57.08
2019-03-13T17:41:05.548Z,81.82
2019-03-13T17:43:39.440Z,68.22
2019-03-13T17:46:07.450Z,51.20
2019-03-13T17:48:36.510Z,55.43
2019-03-13T17:51:05.504Z,49.10
2019-03-13T17:53:35.724Z,52.85
2019-03-13T17:56:04.617Z,48.40
2019-03-13T17:58:33.709Z,41.65
2019-03-13T18:01:02.805Z,47.45
2019-03-13T18:03:31.797Z,45.95
2019-03-13T18:06:02.610Z,45.25
2019-03-13T18:08:31.627Z,52.33
2019-03-13T18:11:00.520Z,42.20
2019-03-13T18:13:29.514Z,42.17
2019-03-13T18:15:58.429Z,41.92
2019-03-13T18:18:27.289Z,42.98
2019-03-13T18:20:56.175Z,46.70
2019-03-13T18:23:25.270Z,46.77
2019-03-13T18:25:55.708Z,43.40
2019-03-13T18:28:24.894Z,41.92
2019-03-13T18:30:53.889Z,43.80
2019-03-13T18:33:26.570Z,45.55
2019-03-13T18:35:58.324Z,40.83
2019-03-13T18:38:27.212Z,45.03
2019-03-13T18:40:57.129Z,39.50
2019-03-13T18:43:26.016Z,43.58
2019-03-13T18:46:00.539Z,36.68
2019-03-13T18:48:29.432Z,38.50
2019-03-13T18:50:58.422Z,37.08
2019-03-13T18:53:33.763Z,34.08
2019-03-13T18:56:06.264Z,38.28
2019-03-13T18:58:35.338Z,56.75
2019-03-13T19:01:04.335Z,49.35
2019-03-13T19:03:33.212Z,37.42
2019-03-13T19:06:02.011Z,41.50
2019-03-13T19:08:31.098Z,47.70
2019-03-13T19:11:02.009Z,42.35
2019-03-13T19:13:31.135Z,41.45
2019-03-13T19:16:00.165Z,42.20
2019-03-13T19:18:29.116Z,52.13
2019-03-13T19:20:58.705Z,38.83
2019-03-13T19:23:27.888Z,34.63
2019-03-13T19:25:56.909Z,39.30
2019-03-13T19:28:25.803Z,39.23
2019-03-13T19:30:54.898Z,35.45
2019-03-13T19:33:26.668Z,39.67
2019-03-13T19:35:58.408Z,34.40
2019-03-13T19:38:27.300Z,39.10
2019-03-13T19:40:56.517Z,42.15
2019-03-13T19:43:27.874Z,40.48
2019-03-13T19:45:57.246Z,43.10
2019-03-13T19:48:26.045Z,34.25
2019-03-13T19:50:56.597Z,37.08
2019-03-13T19:53:27.353Z,34.85
2019-03-13T19:55:56.286Z,39.13
2019-03-13T19:58:25.054Z,36.23
2019-03-13T20:00:53.970Z,34.67
2019-03-13T20:03:25.337Z,41.50
2019-03-13T20:05:54.213Z,39.50
2019-03-13T20:08:26.232Z,39.48
2019-03-13T20:10:57.957Z,44.88
2019-03-13T20:13:28.206Z,42.95
2019-03-13T20:15:57.372Z,40.80
2019-03-13T20:18:27.927Z,39.92
2019-03-13T20:20:56.815Z,38.80
2019-03-13T20:23:30.594Z,37.25
2019-03-13T20:26:01.552Z,43.25
2019-03-13T20:28:31.008Z,37.67
2019-03-13T20:31:00.222Z,36.90
2019-03-13T20:33:29.513Z,39.30
2019-03-13T20:35:59.570Z,37.38
2019-03-13T20:38:29.540Z,39.33
2019-03-13T20:41:01.423Z,39.58
2019-03-13T20:43:33.001Z,39.48
2019-03-13T20:46:01.903Z,42.25
2019-03-13T20:48:33.837Z,42.60
2019-03-13T20:51:03.514Z,42.10
2019-03-13T20:53:33.629Z,41.00
2019-03-13T20:56:02.794Z,41.77
2019-03-13T20:58:31.861Z,41.80
2019-03-13T21:01:01.209Z,67.20
2019-03-13T21:03:30.399Z,49.53
2019-03-13T21:06:00.956Z,44.67
2019-03-13T21:08:35.609Z,54.15
2019-03-13T21:11:02.943Z,43.75
2019-03-13T21:13:41.134Z,41.05
2019-03-13T21:16:10.043Z,40.78
2019-03-13T21:18:39.374Z,39.75
2019-03-13T21:21:08.462Z,43.58
2019-03-13T21:23:37.484Z,45.40
2019-03-13T21:26:06.410Z,45.52
2019-03-13T21:28:35.391Z,46.00
2019-03-13T21:31:04.382Z,47.65
2019-03-13T21:33:37.373Z,45.78
2019-03-13T21:36:08.989Z,44.00
2019-03-13T21:38:38.016Z,46.95
2019-03-13T21:41:11.388Z,44.27
2019-03-13T21:43:40.741Z,48.52
2019-03-13T21:46:09.752Z,47.95
2019-03-13T21:48:41.057Z,49.27
2019-03-13T21:51:10.850Z,50.23
2019-03-13T21:53:42.496Z,48.50
2019-03-13T21:56:14.233Z,48.40
2019-03-13T21:58:45.930Z,48.10
2019-03-13T22:01:19.706Z,44.67
2019-03-13T22:03:45.517Z,41.92
2019-03-13T22:06:27.702Z,39.70
2019-03-13T22:08:45.382Z,43.92
2019-03-13T22:11:14.418Z,41.20
2019-03-13T22:13:43.478Z,42.75
2019-03-13T22:16:16.251Z,44.93
2019-03-13T22:18:45.139Z,47.73
2019-03-13T22:21:14.336Z,45.03
2019-03-13T22:23:43.343Z,48.65
2019-03-13T22:26:12.222Z,44.80
2019-03-13T22:28:41.114Z,43.38
2019-03-13T22:31:10.140Z,43.20
2019-03-13T22:33:39.883Z,47.13
2019-03-13T22:36:12.486Z,40.05
2019-03-13T22:38:41.379Z,47.53
2019-03-13T22:41:10.270Z,43.25
2019-03-13T22:43:39.274Z,45.40
2019-03-13T22:46:08.973Z,44.67
2019-03-13T22:48:39.090Z,48.23
2019-03-13T22:51:10.450Z,40.03
2019-03-13T22:53:39.232Z,42.67
2019-03-13T22:56:10.683Z,45.17
2019-03-13T22:58:44.854Z,43.23
2019-03-13T23:01:15.423Z,41.68
2019-03-13T23:03:44.510Z,43.45
2019-03-13T23:06:22.697Z,43.90
2019-03-13T23:08:51.617Z,49.13
2019-03-13T23:11:20.499Z,45.70
2019-03-13T23:13:49.389Z,44.73
2019-03-13T23:16:18.482Z,45.17
2019-03-13T23:18:48.859Z,47.33
2019-03-13T23:21:18.617Z,57.50
2019-03-13T23:23:47.511Z,49.20
2019-03-13T23:26:16.401Z,54.42
2019-03-13T23:28:45.291Z,53.17
2019-03-13T23:31:14.182Z,55.40
2019-03-13T23:33:42.974Z,52.00
2019-03-13T23:36:11.860Z,60.78
2019-03-13T23:38:41.159Z,45.52
2019-03-13T23:41:11.069Z,45.30
2019-03-13T23:43:39.958Z,50.90
2019-03-13T23:46:08.850Z,52.27
2019-03-13T23:48:37.742Z,51.77
2019-03-13T23:51:06.732Z,50.28
2019-03-13T23:53:36.963Z,51.28
2019-03-13T23:56:05.844Z,64.30
2019-03-13T23:58:34.734Z,63.25
